Sousse, Tunisia
Current Conditions -  °F | °C
As of 11:30 AM on Friday 31 Oct 2014 (Local Time) from DTMB Reporting Station
Scattered Clouds Scattered Clouds  
Wind Chill: 72°   Ceiling: Unl
Heat Index: 72°   Visibility: 6mi
Dew Point: 59°   Wind: 13mph
Humidity: 64%   Direction: 340°NNW
Pressure: 30.18"   Gusts: NA
Location:  35.82°N, 10.63°E
Report Text: DTMB 311030Z 34011KT 9999 SCT016 SCT026 22/15 Q1022 NOSIG
Loading
Personal Weather Stations






























Interactive Weather Map
Tropical Storm Tracking
New forecast layout! Learn more

10-Day Weather Forecast

Advertisements
Track Severe Weather on mobile